ADDS TAF Data INFO
IDs: Format: Raw Decoded Include METARs

Data at: 2021 UTC 22 Apr 2018

TAF COR KECG 221738Z 2218/2318 12009KT P6SM FEW050 BKN250
  FM222300 10006KT P6SM BKN200
  FM231400 09012G20KT P6SM BKN100